Lisbon, Portugal
Current Conditions -  °F | °C
As of 9:00 AM on Friday 24 Oct 2014 (Local Time) from LPPT Reporting Station
Clear Clear  
Wind Chill: 68°   Ceiling: Unl
Heat Index: 68°   Visibility: 6mi
Dew Point: 52°   Wind: 6mph
Humidity: 56%   Direction: 40°NE
Pressure: 30.06"   Gusts: NA
Location:  38.72°N, 9.14°W
Report Text: LPPT 240800Z 04005KT 010V080 CAVOK 20/11 Q1018
Loading
Personal Weather Stations






























Interactive Weather Map
Tropical Storm Tracking
New forecast layout! Learn more

10-Day Weather Forecast

Advertisements
Track Severe Weather on mobile